Time;durP1;ratioP1;P1;durP2;ratioP2;P2;SDS_P1;SDS_P2;PMS_P1;PMS_P2;Temp;Humidity;BMP_temperature;BMP_pressure;BME280_temperature;BME280_humidity;BME280_pressure;Samples;Min_cycle;Max_cycle;Signal;HPM_P1;HPM_P2
2022/04/18 00:02:17;;;;;;;15.60;12.20;;;21.40;38.80;;;;;;5061458;28;20139;-62
2022/04/18 00:04:43;;;;;;;14.57;11.73;;;21.40;38.80;;;;;;5064320;28;20071;-63
2022/04/18 00:07:10;;;;;;;14.85;11.32;;;21.40;38.70;;;;;;5065701;28;20421;-63
2022/04/18 00:09:36;;;;;;;14.93;11.10;;;21.40;38.70;;;;;;5063730;28;20116;-65
2022/04/18 00:12:02;;;;;;;15.15;11.63;;;21.40;38.60;;;;;;5064555;28;20139;-62
2022/04/18 00:14:28;;;;;;;14.38;10.82;;;21.40;38.60;;;;;;5060288;28;20127;-62
2022/04/18 00:16:54;;;;;;;14.57;11.00;;;21.30;38.60;;;;;;5062152;28;20151;-62
2022/04/18 00:19:19;;;;;;;13.85;11.18;;;21.30;38.40;;;;;;5043187;28;20044;-61
2022/04/18 00:21:45;;;;;;;14.15;10.90;;;21.40;38.50;;;;;;5063282;28;20051;-63
2022/04/18 00:24:11;;;;;;;13.85;11.30;;;21.30;38.40;;;;;;5068228;28;20040;-62
2022/04/18 00:26:39;;;;;;;13.93;11.02;;;21.30;38.40;;;;;;5060170;28;20044;-62
2022/04/18 00:29:06;;;;;;;12.55;10.57;;;21.30;38.30;;;;;;5061774;28;20396;-63
2022/04/18 00:31:31;;;;;;;15.90;11.18;;;21.30;38.20;;;;;;5062229;28;20049;-63
2022/04/18 00:33:57;;;;;;;14.18;11.40;;;21.30;38.20;;;;;;5057289;28;20036;-62
2022/04/18 00:36:23;;;;;;;16.30;11.20;;;21.30;38.20;;;;;;5060069;28;20036;-62
2022/04/18 00:38:48;;;;;;;14.13;11.05;;;21.20;38.10;;;;;;5062310;28;20542;-62
2022/04/18 00:41:14;;;;;;;12.55;11.05;;;21.30;38.30;;;;;;5060894;28;20049;-65
2022/04/18 00:43:48;;;;;;;12.90;10.60;;;21.30;38.10;;;;;;5059690;28;20037;-62
2022/04/18 00:46:15;;;;;;;12.70;10.73;;;21.20;38.10;;;;;;5060233;28;20045;-66
2022/04/18 00:48:41;;;;;;;14.48;11.15;;;21.20;38.00;;;;;;5059854;28;20033;-63
2022/04/18 00:51:10;;;;;;;12.70;10.27;;;21.20;38.00;;;;;;5059579;28;20037;-63
2022/04/18 00:53:37;;;;;;;14.00;11.07;;;21.20;38.00;;;;;;5061013;28;20035;-63
2022/04/18 00:56:04;;;;;;;13.32;10.45;;;21.20;37.90;;;;;;5065096;28;20841;-61
2022/04/18 00:58:30;;;;;;;13.27;10.88;;;21.20;37.90;;;;;;5060825;28;20050;-62
2022/04/18 01:00:56;;;;;;;14.10;10.90;;;21.20;37.90;;;;;;5063104;28;20488;-61
2022/04/18 01:03:22;;;;;;;14.02;10.10;;;21.20;38.00;;;;;;5059089;28;20053;-61
2022/04/18 01:05:48;;;;;;;12.75;10.57;;;21.20;37.90;;;;;;5060877;28;20048;-62
2022/04/18 01:08:14;;;;;;;15.68;11.10;;;21.20;37.90;;;;;;5060794;28;20048;-61
2022/04/18 01:10:40;;;;;;;14.45;10.85;;;21.20;37.90;;;;;;5063306;28;20404;-62
2022/04/18 01:13:06;;;;;;;13.60;11.07;;;21.20;37.90;;;;;;5041614;28;20373;-62
2022/04/18 01:15:32;;;;;;;14.23;11.18;;;21.20;37.80;;;;;;5064234;28;20083;-61
2022/04/18 01:17:57;;;;;;;13.30;10.45;;;21.20;37.80;;;;;;5048212;28;20064;-62
2022/04/18 01:20:25;;;;;;;15.35;11.73;;;21.10;37.80;;;;;;5064227;28;20166;-63
2022/04/18 01:22:52;;;;;;;14.43;10.95;;;21.10;37.70;;;;;;5060472;28;20047;-63
2022/04/18 01:30:57;;;;;;;15.50;11.57;;;21.10;37.60;;;;;;5060182;28;20059;-62
2022/04/18 01:33:23;;;;;;;16.85;12.05;;;21.10;37.60;;;;;;5058537;28;20044;-61
2022/04/18 01:35:49;;;;;;;15.25;11.35;;;21.10;37.60;;;;;;5060264;28;20439;-62
2022/04/18 01:38:14;;;;;;;15.68;11.75;;;21.10;37.60;;;;;;5061517;28;20036;-62
2022/04/18 01:40:40;;;;;;;18.40;11.93;;;21.10;37.60;;;;;;5060696;28;20389;-61
2022/04/18 01:43:06;;;;;;;18.40;12.20;;;21.10;37.50;;;;;;5060877;28;20029;-62
2022/04/18 01:45:32;;;;;;;17.77;12.43;;;21.10;37.40;;;;;;5061478;28;20032;-62
2022/04/18 01:47:57;;;;;;;18.70;12.65;;;21.10;37.40;;;;;;5060708;28;20035;-62
2022/04/18 01:50:23;;;;;;;17.83;12.15;;;21.10;37.40;;;;;;5060286;28;20041;-61
2022/04/18 01:52:48;;;;;;;18.15;12.52;;;21.10;37.40;;;;;;5068117;28;20460;-61
2022/04/18 01:55:14;;;;;;;18.60;13.13;;;21.10;37.40;;;;;;5080905;28;20040;-62
2022/04/18 01:57:40;;;;;;;15.75;11.95;;;21.00;37.30;;;;;;5064731;28;20425;-61
2022/04/18 02:00:06;;;;;;;16.50;12.02;;;21.10;37.30;;;;;;5062120;28;20047;-63
2022/04/18 02:02:31;;;;;;;15.32;12.35;;;21.10;37.30;;;;;;5059712;28;20078;-62
2022/04/18 02:04:57;;;;;;;20.95;12.90;;;21.00;37.30;;;;;;5060998;28;20040;-62
2022/04/18 02:07:22;;;;;;;17.75;12.75;;;21.00;37.30;;;;;;5062153;28;20039;-61
2022/04/18 02:09:48;;;;;;;17.17;12.48;;;21.00;37.30;;;;;;5063396;28;20669;-62
2022/04/18 02:12:14;;;;;;;17.33;11.95;;;21.00;37.20;;;;;;5065908;28;20380;-61
2022/04/18 02:14:39;;;;;;;18.17;12.00;;;21.00;37.20;;;;;;5065806;28;20443;-64
2022/04/18 02:17:05;;;;;;;17.83;12.00;;;21.00;37.20;;;;;;5063148;28;20045;-61
2022/04/18 02:19:30;;;;;;;17.20;12.02;;;21.00;37.10;;;;;;5063786;28;20087;-62
2022/04/18 02:21:56;;;;;;;14.18;10.95;;;21.00;37.20;;;;;;5061427;28;20037;-60
2022/04/18 02:24:22;;;;;;;15.38;11.35;;;21.00;37.10;;;;;;5064200;28;20499;-62
2022/04/18 02:26:47;;;;;;;14.63;11.02;;;21.00;37.10;;;;;;5076677;28;20515;-64
2022/04/18 02:29:13;;;;;;;17.00;12.05;;;21.00;37.10;;;;;;5061669;28;20068;-61
2022/04/18 02:34:22;;;;;;;16.02;11.93;;;21.00;37.10;;;;;;5060508;28;20067;-61
2022/04/18 02:36:49;;;;;;;14.60;11.15;;;21.00;37.10;;;;;;5064721;28;20040;-61
2022/04/18 02:39:14;;;;;;;15.35;11.00;;;20.90;37.00;;;;;;5062314;28;20392;-62
2022/04/18 02:41:40;;;;;;;14.63;11.02;;;20.90;37.00;;;;;;5061971;28;20036;-64
2022/04/18 02:44:05;;;;;;;14.50;11.13;;;20.90;37.00;;;;;;5062740;28;20037;-62
2022/04/18 02:46:31;;;;;;;14.98;10.88;;;20.90;37.70;;;;;;5060632;28;20043;-62
2022/04/18 02:48:57;;;;;;;15.18;11.25;;;20.90;36.90;;;;;;5060284;28;20053;-62
2022/04/18 02:51:27;;;;;;;14.25;10.90;;;20.90;37.00;;;;;;5060581;28;20181;-63
2022/04/18 02:53:53;;;;;;;13.95;10.40;;;20.90;37.20;;;;;;5060865;28;20036;-65
2022/04/18 02:56:22;;;;;;;13.20;10.52;;;20.90;36.90;;;;;;5059795;28;20032;-63
2022/04/18 02:58:48;;;;;;;15.30;10.77;;;20.90;36.90;;;;;;5059025;28;20086;-62
2022/04/18 03:01:14;;;;;;;14.38;11.02;;;20.90;36.80;;;;;;5058505;28;20037;-61
2022/04/18 03:03:39;;;;;;;15.85;11.43;;;20.90;36.90;;;;;;5060882;28;20040;-63
2022/04/18 03:06:05;;;;;;;14.23;11.30;;;20.90;36.80;;;;;;5059106;28;20153;-64
2022/04/18 03:08:31;;;;;;;14.95;10.75;;;20.90;36.80;;;;;;5060874;28;20074;-62
2022/04/18 03:11:03;;;;;;;14.85;11.45;;;20.80;36.80;;;;;;5062157;28;20090;-61
2022/04/18 03:13:29;;;;;;;14.20;11.27;;;20.80;36.70;;;;;;5060652;28;20041;-62
2022/04/18 03:15:55;;;;;;;13.73;10.70;;;20.80;36.70;;;;;;5059880;28;20154;-62
2022/04/18 03:18:20;;;;;;;14.10;11.07;;;20.80;36.70;;;;;;5060801;28;20124;-61
2022/04/18 03:20:46;;;;;;;14.40;10.77;;;20.80;36.70;;;;;;5058107;28;20048;-62
2022/04/18 03:23:12;;;;;;;14.23;10.90;;;20.80;36.70;;;;;;5058651;28;20048;-62
2022/04/18 03:25:38;;;;;;;15.27;11.10;;;20.80;36.60;;;;;;5059813;28;20050;-61
2022/04/18 03:28:03;;;;;;;13.05;10.82;;;20.80;36.60;;;;;;5059119;28;20037;-63
2022/04/18 03:30:29;;;;;;;13.68;11.25;;;20.80;36.60;;;;;;5057979;28;20037;-62
2022/04/18 03:32:55;;;;;;;13.02;11.23;;;20.80;36.60;;;;;;5057531;28;20040;-62
2022/04/18 03:35:20;;;;;;;14.88;11.30;;;20.80;36.60;;;;;;5059990;28;20095;-63
2022/04/18 03:40:30;;;;;;;14.40;10.80;;;20.80;36.50;;;;;;5062248;28;20071;-62
2022/04/18 03:42:55;;;;;;;14.43;11.10;;;20.80;36.60;;;;;;5066583;28;20051;-63
2022/04/18 03:45:21;;;;;;;14.30;10.82;;;20.80;36.60;;;;;;5059982;28;20484;-61
2022/04/18 03:47:46;;;;;;;13.75;11.57;;;20.80;36.60;;;;;;5060646;28;20052;-61
2022/04/18 03:50:12;;;;;;;13.13;10.38;;;20.80;36.50;;;;;;5061304;28;20128;-63
2022/04/18 03:52:38;;;;;;;14.57;10.80;;;20.80;36.50;;;;;;5061272;28;20037;-63
2022/04/18 03:55:03;;;;;;;11.80;10.27;;;20.80;36.50;;;;;;5057463;28;20041;-62
2022/04/18 03:57:29;;;;;;;12.77;10.50;;;20.80;36.50;;;;;;5056027;28;20110;-61
2022/04/18 03:59:54;;;;;;;11.23;10.02;;;20.80;36.50;;;;;;5075193;28;20090;-61
2022/04/18 04:02:20;;;;;;;12.25;10.15;;;20.70;36.40;;;;;;5055248;28;20047;-62
2022/04/18 04:04:46;;;;;;;11.88;10.15;;;20.80;36.50;;;;;;5060197;28;20051;-66
2022/04/18 04:07:11;;;;;;;12.27;10.80;;;20.70;36.40;;;;;;5058445;28;20051;-62
2022/04/18 04:09:38;;;;;;;12.38;9.68;;;20.70;36.40;;;;;;5058991;28;20491;-61
2022/04/18 04:12:05;;;;;;;11.05;9.80;;;20.70;36.40;;;;;;5058748;28;20088;-61
2022/04/18 04:14:31;;;;;;;11.50;9.90;;;20.70;36.30;;;;;;5058777;28;20036;-63
2022/04/18 04:16:57;;;;;;;11.50;10.10;;;20.70;36.40;;;;;;5056909;28;20041;-62
2022/04/18 04:19:22;;;;;;;11.23;9.82;;;20.70;36.40;;;;;;5057226;28;20048;-63
2022/04/18 04:21:48;;;;;;;11.65;9.68;;;20.70;36.30;;;;;;5055522;28;20070;-63
2022/04/18 04:24:14;;;;;;;10.80;9.43;;;20.70;36.30;;;;;;5064603;28;20400;-62
2022/04/18 04:26:39;;;;;;;11.93;10.35;;;20.70;36.30;;;;;;5060139;28;20045;-62
2022/04/18 04:29:05;;;;;;;11.57;10.20;;;20.70;36.30;;;;;;5058001;28;20056;-63
2022/04/18 04:31:30;;;;;;;12.55;10.27;;;20.70;36.30;;;;;;5058791;28;20059;-62
2022/04/18 04:33:56;;;;;;;14.45;11.13;;;20.70;36.30;;;;;;5058089;28;20037;-64
2022/04/18 04:36:21;;;;;;;13.10;10.23;;;20.70;36.30;;;;;;5059008;28;20041;-64
2022/04/18 04:38:47;;;;;;;12.98;10.15;;;20.70;36.20;;;;;;5060709;28;20036;-61
2022/04/18 04:41:14;;;;;;;14.30;10.68;;;20.70;36.30;;;;;;5056192;28;20040;-64
2022/04/18 04:43:40;;;;;;;12.30;10.32;;;20.70;36.20;;;;;;5057868;28;20045;-62
2022/04/18 04:46:05;;;;;;;16.15;11.13;;;20.60;36.20;;;;;;5058392;28;21144;-62
2022/04/18 04:48:31;;;;;;;17.35;11.77;;;20.60;36.20;;;;;;5060096;28;20051;-62
2022/04/18 04:50:57;;;;;;;14.48;10.70;;;20.60;36.90;;;;;;5059961;28;20051;-63
2022/04/18 04:53:22;;;;;;;13.55;10.40;;;20.60;36.20;;;;;;5058229;28;20040;-61
2022/04/18 04:55:48;;;;;;;14.00;10.43;;;20.60;36.90;;;;;;5057802;28;20040;-62
2022/04/18 04:58:14;;;;;;;16.83;11.15;;;20.60;36.20;;;;;;5057277;28;20536;-62
2022/04/18 05:00:40;;;;;;;14.00;11.15;;;20.60;36.20;;;;;;5048918;28;20052;-62
2022/04/18 05:03:06;;;;;;;12.00;10.40;;;20.60;36.10;;;;;;5055634;28;20036;-62
2022/04/18 05:05:34;;;;;;;14.57;10.90;;;20.60;36.10;;;;;;5073530;28;20048;-62
2022/04/18 05:08:00;;;;;;;12.55;10.75;;;20.60;36.10;;;;;;5059108;28;20506;-62
2022/04/18 05:10:26;;;;;;;14.48;10.52;;;20.60;36.10;;;;;;5057588;28;20119;-62
2022/04/18 05:12:52;;;;;;;16.02;10.45;;;20.60;36.10;;;;;;5058194;28;20036;-63
2022/04/18 05:15:19;;;;;;;13.85;10.30;;;20.60;36.00;;;;;;5058028;28;20521;-61
2022/04/18 05:17:44;;;;;;;12.55;10.60;;;20.50;36.00;;;;;;5063109;28;20048;-63
2022/04/18 05:20:11;;;;;;;12.27;10.00;;;20.60;36.00;;;;;;5061108;28;20047;-62
2022/04/18 05:22:36;;;;;;;13.50;10.45;;;20.60;36.10;;;;;;5056555;28;20041;-63
2022/04/18 05:25:03;;;;;;;13.27;10.18;;;20.60;36.00;;;;;;5058295;28;20047;-63
2022/04/18 05:27:29;;;;;;;12.90;10.60;;;20.60;36.10;;;;;;5057324;28;20068;-61
2022/04/18 05:29:55;;;;;;;11.77;9.88;;;20.50;36.70;;;;;;5060356;28;20052;-66
2022/04/18 05:32:20;;;;;;;11.63;9.77;;;20.50;35.90;;;;;;5059582;28;20060;-66
2022/04/18 05:34:46;;;;;;;13.60;10.48;;;20.50;35.90;;;;;;5056738;28;20047;-63
2022/04/18 05:37:11;;;;;;;12.55;9.85;;;20.50;36.00;;;;;;5056014;28;20564;-62
2022/04/18 05:39:37;;;;;;;14.32;10.25;;;20.50;36.00;;;;;;5060595;28;20147;-61
2022/04/18 05:42:03;;;;;;;12.98;9.20;;;20.50;36.00;;;;;;5059120;28;20041;-61
2022/04/18 05:44:32;;;;;;;13.52;9.88;;;20.50;35.90;;;;;;5057661;28;20037;-61
2022/04/18 05:46:57;;;;;;;12.65;9.63;;;20.50;35.90;;;;;;5057137;28;20049;-61
2022/04/18 05:49:23;;;;;;;11.73;9.23;;;20.50;36.00;;;;;;5057483;28;20049;-61
2022/04/18 05:51:49;;;;;;;11.23;9.18;;;20.50;35.90;;;;;;5058850;28;20045;-62
2022/04/18 05:54:14;;;;;;;10.43;8.40;;;20.50;35.90;;;;;;5057265;28;20071;-62
2022/04/18 05:56:40;;;;;;;9.98;8.98;;;20.50;35.90;;;;;;5057504;28;20162;-62
2022/04/18 05:59:06;;;;;;;9.80;8.80;;;20.50;35.90;;;;;;5059501;28;20488;-61
2022/04/18 06:01:32;;;;;;;11.15;9.13;;;20.50;35.90;;;;;;5060918;28;20031;-62
2022/04/18 06:03:57;;;;;;;10.38;8.43;;;20.50;35.90;;;;;;5056298;28;20068;-62
2022/04/18 06:06:23;;;;;;;9.32;7.80;;;20.50;36.00;;;;;;5060858;28;20040;-62
2022/04/18 06:08:49;;;;;;;12.02;8.77;;;20.50;36.00;;;;;;5057176;28;20444;-62
2022/04/18 06:11:14;;;;;;;11.65;9.52;;;20.50;35.90;;;;;;5063964;28;20047;-62
2022/04/18 06:13:41;;;;;;;10.63;8.60;;;20.50;36.00;;;;;;5055635;28;20277;-63
2022/04/18 06:16:06;;;;;;;11.18;8.73;;;20.50;36.00;;;;;;5059493;28;20049;-61
2022/04/18 06:18:33;;;;;;;11.27;8.60;;;20.50;36.00;;;;;;5059526;28;20524;-63
2022/04/18 06:20:59;;;;;;;11.80;8.70;;;20.50;36.00;;;;;;5058587;28;20047;-62
2022/04/18 06:23:24;;;;;;;9.93;8.40;;;20.50;36.00;;;;;;5057786;28;20041;-62
2022/04/18 06:25:50;;;;;;;9.70;8.25;;;20.40;36.00;;;;;;5057877;28;20408;-63
2022/04/18 06:28:15;;;;;;;9.80;8.07;;;20.50;36.00;;;;;;5054982;28;20044;-62
2022/04/18 06:30:42;;;;;;;9.57;8.57;;;20.40;35.90;;;;;;5058161;28;20048;-60
2022/04/18 06:33:11;;;;;;;11.52;8.85;;;20.40;36.00;;;;;;5058420;28;20049;-62
2022/04/18 06:35:38;;;;;;;8.57;7.78;;;20.50;36.00;;;;;;5042760;28;20044;-62
2022/04/18 06:38:04;;;;;;;11.80;8.32;;;20.40;36.00;;;;;;5057788;28;20040;-61
2022/04/18 06:40:30;;;;;;;8.77;7.72;;;20.40;35.90;;;;;;5059527;28;20139;-62
2022/04/18 06:42:55;;;;;;;8.65;7.68;;;20.40;36.70;;;;;;5058898;28;20555;-62
2022/04/18 06:45:21;;;;;;;9.70;7.80;;;20.40;36.00;;;;;;5057653;28;20454;-61
2022/04/18 06:47:47;;;;;;;10.40;8.20;;;20.40;36.00;;;;;;5060525;28;20582;-66
2022/04/18 06:50:13;;;;;;;10.82;7.93;;;20.40;36.00;;;;;;5063631;28;20648;-62
2022/04/18 06:52:39;;;;;;;9.27;7.68;;;20.40;36.00;;;;;;5058984;28;20040;-61
2022/04/18 06:55:06;;;;;;;9.02;7.93;;;20.40;36.10;;;;;;5067113;28;20075;-66
2022/04/18 06:57:31;;;;;;;10.32;7.85;;;20.40;36.00;;;;;;5060403;28;20037;-62
2022/04/18 06:59:57;;;;;;;8.32;7.45;;;20.40;36.10;;;;;;5061200;28;20483;-63
2022/04/18 07:02:22;;;;;;;9.32;7.35;;;20.40;36.10;;;;;;5061176;28;20127;-62
2022/04/18 07:04:49;;;;;;;8.10;7.07;;;20.40;36.10;;;;;;5057379;28;20930;-62
2022/04/18 07:07:14;;;;;;;7.95;6.97;;;20.40;36.10;;;;;;5061148;28;20086;-61
2022/04/18 07:09:40;;;;;;;9.43;6.85;;;20.40;36.20;;;;;;5076567;28;20044;-62
2022/04/18 07:12:06;;;;;;;8.38;6.55;;;20.40;36.40;;;;;;5062248;28;20487;-62
2022/04/18 07:14:34;;;;;;;8.15;6.20;;;20.40;36.60;;;;;;5064379;28;20036;-60
2022/04/18 07:17:00;;;;;;;9.85;7.28;;;20.40;36.80;;;;;;5056811;28;20041;-62
2022/04/18 07:19:28;;;;;;;8.98;7.13;;;20.40;37.20;;;;;;5059372;28;20045;-62
2022/04/18 07:21:54;;;;;;;12.55;7.32;;;20.40;37.80;;;;;;5059500;28;20137;-61
2022/04/18 07:24:19;;;;;;;9.93;7.50;;;20.50;38.00;;;;;;5059156;28;20484;-62
2022/04/18 07:26:45;;;;;;;11.30;6.97;;;20.50;38.00;;;;;;5061459;28;20472;-62
2022/04/18 07:29:10;;;;;;;9.23;6.85;;;20.50;38.00;;;;;;5060124;28;20033;-60
2022/04/18 07:31:36;;;;;;;9.23;7.32;;;20.50;38.10;;;;;;5061351;28;20048;-62
2022/04/18 07:34:01;;;;;;;10.63;6.70;;;20.50;38.10;;;;;;5059910;28;20052;-64
2022/04/18 07:36:27;;;;;;;10.18;6.85;;;20.50;38.20;;;;;;5059552;28;20037;-65
2022/04/18 07:38:52;;;;;;;8.18;6.20;;;20.60;38.30;;;;;;5059969;28;20036;-64
2022/04/18 07:41:23;;;;;;;8.35;6.75;;;20.60;38.60;;;;;;5057646;28;20124;-61
2022/04/18 07:43:50;;;;;;;8.02;6.85;;;20.60;39.00;;;;;;5057475;28;20057;-61
2022/04/18 07:46:16;;;;;;;9.25;6.85;;;20.60;39.20;;;;;;5061076;28;20064;-63
2022/04/18 07:48:43;;;;;;;7.57;6.60;;;20.60;39.30;;;;;;5059486;28;20139;-60
2022/04/18 07:53:53;;;;;;;8.95;6.53;;;20.70;39.60;;;;;;5071679;28;20465;-61
2022/04/18 07:56:20;;;;;;;7.60;5.97;;;20.60;39.70;;;;;;5062200;28;20043;-62
2022/04/18 07:58:46;;;;;;;7.10;6.32;;;20.70;39.70;;;;;;5067229;28;20127;-63
2022/04/18 08:01:11;;;;;;;7.72;6.32;;;20.60;39.60;;;;;;5057205;28;20055;-63
2022/04/18 08:03:37;;;;;;;8.30;5.97;;;20.70;39.60;;;;;;5056266;28;20037;-60
2022/04/18 08:06:03;;;;;;;7.15;5.90;;;20.70;39.70;;;;;;5059089;28;20438;-65
2022/04/18 08:08:30;;;;;;;7.78;5.90;;;20.70;39.80;;;;;;5058052;28;20044;-61
2022/04/18 08:10:57;;;;;;;7.07;6.38;;;20.70;39.70;;;;;;5059182;28;20048;-61
2022/04/18 08:13:22;;;;;;;6.32;5.72;;;20.70;39.80;;;;;;5054064;28;20049;-61
2022/04/18 08:15:48;;;;;;;6.75;5.95;;;20.70;39.80;;;;;;5056742;28;20054;-62
2022/04/18 08:18:14;;;;;;;6.70;5.78;;;20.70;39.80;;;;;;5056813;28;20028;-60
2022/04/18 08:20:39;;;;;;;7.80;5.53;;;20.70;39.80;;;;;;5056977;28;20456;-61
2022/04/18 08:23:05;;;;;;;7.78;6.13;;;20.70;39.80;;;;;;5056732;28;20033;-60
2022/04/18 08:25:30;;;;;;;7.53;5.97;;;20.70;40.00;;;;;;5057839;28;20397;-60
2022/04/18 08:27:56;;;;;;;7.30;5.60;;;20.70;40.00;;;;;;5056674;28;20044;-60
2022/04/18 08:30:21;;;;;;;9.05;5.97;;;20.80;40.20;;;;;;5054932;28;20583;-61
2022/04/18 08:32:47;;;;;;;8.93;6.10;;;20.70;40.40;;;;;;5056239;28;20180;-62
2022/04/18 08:35:12;;;;;;;7.70;6.28;;;20.80;40.70;;;;;;5053335;28;20091;-62
2022/04/18 08:37:38;;;;;;;7.03;5.30;;;20.80;41.10;;;;;;5054870;28;20102;-62
2022/04/18 08:40:06;;;;;;;10.40;5.15;;;20.80;41.10;;;;;;5054444;28;20047;-62
2022/04/18 08:42:35;;;;;;;6.65;5.22;;;20.80;41.30;;;;;;5057015;28;20099;-62
2022/04/18 08:45:09;;;;;;;8.63;5.82;;;20.80;41.60;;;;;;5056954;28;20037;-66
2022/04/18 08:53:09;;;;;;;6.07;4.68;;;20.80;41.20;;;;;;5054146;28;20575;-63
2022/04/18 08:55:34;;;;;;;5.72;5.10;;;20.80;41.10;;;;;;5063791;28;20029;-63
2022/04/18 08:58:00;;;;;;;6.57;5.00;;;20.80;41.10;;;;;;5054009;28;20047;-62
2022/04/18 09:00:27;;;;;;;5.75;5.05;;;20.80;41.10;;;;;;5054791;28;20556;-64
2022/04/18 09:02:53;;;;;;;5.85;4.95;;;20.80;41.00;;;;;;5055029;28;20036;-63
2022/04/18 09:05:19;;;;;;;6.90;5.07;;;20.80;41.10;;;;;;5055174;28;20044;-62
2022/04/18 09:08:00;;;;;;;6.25;5.10;;;20.80;41.00;;;;;;5053748;28;20463;-61
2022/04/18 09:10:26;;;;;;;;;;;20.80;41.10;;;;;;5055899;28;20041;-61
2022/04/18 09:12:52;;;;;;;6.88;5.10;;;20.80;41.10;;;;;;5056865;28;20368;-61
2022/04/18 09:15:50;;;;;;;6.53;4.53;;;20.80;41.00;;;;;;5046983;28;20112;-62
2022/04/18 09:18:22;;;;;;;5.82;4.57;;;20.80;41.00;;;;;;5010711;28;20080;-62
2022/04/18 09:20:49;;;;;;;8.82;5.68;;;20.80;41.00;;;;;;5055014;28;20044;-63
2022/04/18 09:23:20;;;;;;;6.75;6.15;;;20.80;40.40;;;;;;5053422;28;20044;-67
2022/04/18 09:25:46;;;;;;;8.65;6.20;;;20.80;39.90;;;;;;5053666;28;20154;-61
2022/04/18 09:28:12;;;;;;;6.97;6.30;;;20.80;39.30;;;;;;5053998;28;20392;-65
2022/04/18 09:30:38;;;;;;;6.45;5.72;;;20.80;39.00;;;;;;5055132;28;20087;-63
2022/04/18 09:33:07;;;;;;;7.93;6.65;;;20.80;39.10;;;;;;5053446;28;20045;-59
2022/04/18 09:35:34;;;;;;;7.80;6.20;;;20.80;38.70;;;;;;5052652;28;20070;-60
2022/04/18 09:38:06;;;;;;;9.15;6.88;;;20.70;37.90;;;;;;5053293;28;20033;-60
2022/04/18 09:40:32;;;;;;;7.22;5.90;;;20.70;38.00;;;;;;5054900;28;20044;-62
2022/04/18 09:42:58;;;;;;;6.75;6.00;;;20.70;37.20;;;;;;5054968;28;20146;-63
2022/04/18 09:45:24;;;;;;;7.70;6.05;;;20.70;36.60;;;;;;5055936;28;20617;-61
2022/04/18 09:47:54;;;;;;;8.85;6.25;;;20.70;36.60;;;;;;5055759;28;20066;-63
2022/04/18 09:53:06;;;;;;;7.13;5.80;;;20.60;37.50;;;;;;5055515;28;20083;-61
2022/04/18 09:55:32;;;;;;;6.57;5.93;;;20.70;37.20;;;;;;5055762;28;20129;-61
2022/04/18 09:58:02;;;;;;;7.55;6.30;;;20.70;37.40;;;;;;5055944;28;20317;-61
2022/04/18 10:00:28;;;;;;;8.30;6.40;;;20.70;37.50;;;;;;5055459;28;20603;-61
2022/04/18 10:02:54;;;;;;;8.00;6.75;;;20.70;37.70;;;;;;5063963;28;20390;-62
2022/04/18 10:05:21;;;;;;;7.10;6.03;;;20.80;37.90;;;;;;5058428;28;20135;-66
2022/04/18 10:07:48;;;;;;;7.85;5.93;;;20.80;38.00;;;;;;5058646;28;20044;-63
2022/04/18 10:10:14;;;;;;;7.18;5.97;;;20.80;38.00;;;;;;5061615;28;20120;-63
2022/04/18 10:12:39;;;;;;;8.68;5.70;;;20.80;38.20;;;;;;5062427;28;20143;-61
2022/04/18 10:15:05;;;;;;;6.88;6.00;;;20.80;38.40;;;;;;5062148;28;20036;-62
2022/04/18 10:17:35;;;;;;;6.22;5.57;;;20.80;38.70;;;;;;5060314;28;20029;-63
2022/04/18 10:20:20;;;;;;;6.32;5.60;;;20.80;38.90;;;;;;5060804;28;20071;-62
2022/04/18 10:23:12;;;;;;;6.95;5.40;;;20.80;38.90;;;;;;5060752;28;20131;-64
2022/04/18 10:26:08;;;;;;;5.90;5.20;;;20.80;39.60;;;;;;5062673;28;20056;-63
2022/04/18 10:28:42;;;;;;;5.72;4.72;;;20.80;38.90;;;;;;5060405;28;20048;-67
2022/04/18 10:31:17;;;;;;;5.40;4.90;;;20.80;38.90;;;;;;5058986;28;20111;-64
2022/04/18 10:33:43;;;;;;;7.22;5.15;;;20.80;38.80;;;;;;5062351;28;20051;-64
2022/04/18 10:36:09;;;;;;;5.50;5.00;;;20.80;38.80;;;;;;5056846;28;20698;-63
2022/04/18 10:38:37;;;;;;;8.48;4.68;;;20.80;38.70;;;;;;5056031;28;20040;-61
2022/04/18 10:41:15;;;;;;;5.85;4.13;;;20.80;38.60;;;;;;5058894;28;20159;-61
2022/04/18 10:44:02;;;;;;;6.10;4.70;;;20.80;38.50;;;;;;5058628;28;20393;-60
2022/04/18 10:46:28;;;;;;;4.70;4.20;;;20.80;38.70;;;;;;5059090;28;20076;-61
2022/04/18 10:48:56;;;;;;;6.80;4.72;;;20.70;38.40;;;;;;5055702;28;20049;-62
2022/04/18 10:51:30;;;;;;;5.80;4.30;;;20.80;39.00;;;;;;5056413;28;20103;-66
2022/04/18 10:54:06;;;;;;;5.55;4.10;;;20.80;39.10;;;;;;5059351;28;20397;-62
2022/04/18 10:56:59;;;;;;;5.30;4.55;;;20.80;39.40;;;;;;5057901;28;20380;-64
2022/04/18 10:59:31;;;;;;;5.55;4.50;;;20.80;39.00;;;;;;5056675;28;20050;-63
2022/04/18 11:01:59;;;;;;;4.93;4.38;;;20.80;39.20;;;;;;5072155;28;20123;-61
2022/04/18 11:04:27;;;;;;;6.13;4.30;;;20.80;39.10;;;;;;5057802;28;20048;-61
2022/04/18 11:07:01;;;;;;;5.07;4.50;;;20.80;39.10;;;;;;5057656;28;20074;-63
2022/04/18 11:09:28;;;;;;;6.78;3.88;;;20.80;39.00;;;;;;5056935;28;20037;-62
2022/04/18 11:12:16;;;;;;;5.72;3.53;;;20.80;38.90;;;;;;5055253;28;20033;-59
2022/04/18 11:14:51;;;;;;;4.32;3.92;;;20.70;38.80;;;;;;5062240;28;20075;-61
2022/04/18 11:17:31;;;;;;;6.20;3.90;;;20.70;38.70;;;;;;5056636;28;20087;-65
2022/04/18 11:20:17;;;;;;;4.15;3.75;;;20.70;38.80;;;;;;5059716;28;20047;-66
2022/04/18 11:23:02;;;;;;;5.82;3.75;;;20.70;38.90;;;;;;5058134;28;20504;-65
2022/04/18 11:25:52;;;;;;;3.97;3.55;;;20.70;38.90;;;;;;5065065;28;20109;-61
2022/04/18 11:28:17;;;;;;;5.28;3.67;;;20.70;39.60;;;;;;5057761;28;20037;-62
2022/04/18 11:30:43;;;;;;;4.68;3.28;;;20.70;38.80;;;;;;5059400;28;20053;-62
2022/04/18 11:33:09;;;;;;;4.13;3.45;;;20.70;38.80;;;;;;5057385;28;20052;-64
2022/04/18 11:35:35;;;;;;;4.72;3.33;;;20.70;38.80;;;;;;5055090;28;20043;-65
2022/04/18 11:38:07;;;;;;;3.65;3.33;;;20.70;38.60;;;;;;5057165;28;20059;-66
2022/04/18 11:40:40;;;;;;;4.10;3.40;;;20.70;38.30;;;;;;5059641;28;20037;-62
2022/04/18 11:43:14;;;;;;;4.32;3.28;;;20.80;38.50;;;;;;5060638;28;20094;-62
2022/04/18 11:45:39;;;;;;;6.15;3.30;;;20.70;38.40;;;;;;5058172;28;20421;-60
2022/04/18 11:48:06;;;;;;;3.83;3.00;;;20.70;38.30;;;;;;5056184;28;20242;-63
2022/04/18 11:50:37;;;;;;;4.90;3.33;;;20.80;38.40;;;;;;5058972;28;20068;-66
2022/04/18 11:53:03;;;;;;;7.47;3.20;;;20.70;38.40;;;;;;5058964;28;20537;-64
2022/04/18 11:55:29;;;;;;;5.93;3.10;;;20.70;38.60;;;;;;5057372;28;20075;-63
2022/04/18 11:57:55;;;;;;;3.22;2.70;;;20.80;38.70;;;;;;5056694;28;20068;-62
2022/04/18 12:08:39;;;;;;;4.15;3.00;;;20.70;38.90;;;;;;5050914;28;20511;-63
2022/04/18 12:11:05;;;;;;;3.10;2.80;;;20.80;39.10;;;;;;5056424;28;20139;-62
2022/04/18 12:13:31;;;;;;;5.47;3.00;;;20.80;39.00;;;;;;5053691;28;20137;-62
2022/04/18 12:15:59;;;;;;;3.55;2.70;;;20.70;39.10;;;;;;5056716;28;20413;-64
2022/04/18 12:18:25;;;;;;;5.35;3.20;;;20.80;39.00;;;;;;5055679;28;20059;-64
2022/04/18 12:20:52;;;;;;;3.78;2.80;;;20.80;39.00;;;;;;5058054;28;20033;-62
2022/04/18 12:23:19;;;;;;;4.07;2.80;;;20.80;39.20;;;;;;5056072;28;20409;-62
2022/04/18 12:25:53;;;;;;;6.43;2.72;;;20.80;39.20;;;;;;5055108;28;20158;-64
2022/04/18 12:28:24;;;;;;;5.88;2.97;;;20.80;39.40;;;;;;5053560;28;20048;-61
2022/04/18 12:30:51;;;;;;;3.65;2.75;;;20.80;39.30;;;;;;5057393;28;20056;-65
2022/04/18 12:33:20;;;;;;;6.32;3.10;;;20.80;39.30;;;;;;5057736;28;20040;-62
2022/04/18 12:35:51;;;;;;;3.85;2.95;;;20.80;39.40;;;;;;5057210;28;20295;-62
2022/04/18 12:38:18;;;;;;;4.25;3.08;;;20.80;39.30;;;;;;5056718;28;20045;-62
2022/04/18 12:40:45;;;;;;;4.30;2.75;;;20.80;39.30;;;;;;5070762;28;20400;-63
2022/04/18 12:43:16;;;;;;;4.00;2.72;;;20.80;39.30;;;;;;5056287;28;20044;-61
2022/04/18 12:45:49;;;;;;;;;;;20.80;39.30;;;;;;5056076;28;20045;-63
2022/04/18 12:48:36;;;;;;;4.78;2.90;;;20.80;39.60;;;;;;5057320;28;20195;-66
2022/04/18 12:51:03;;;;;;;6.85;3.33;;;20.80;40.10;;;;;;5054258;28;20132;-62
2022/04/18 12:53:48;;;;;;;4.72;3.00;;;20.80;40.20;;;;;;5054356;28;20048;-61
2022/04/18 12:56:20;;;;;;;5.53;3.05;;;20.80;40.20;;;;;;5053939;28;20045;-64
2022/04/18 12:58:49;;;;;;;6.63;3.22;;;20.80;40.00;;;;;;5055446;28;20063;-62
2022/04/18 13:01:25;;;;;;;3.90;3.03;;;20.80;39.90;;;;;;5052611;28;20099;-63
2022/04/18 13:03:52;;;;;;;6.18;2.97;;;20.80;39.70;;;;;;5053821;28;20044;-62
2022/04/18 13:06:25;;;;;;;4.55;2.95;;;20.80;39.60;;;;;;5054727;28;20074;-65
2022/04/18 13:09:05;;;;;;;4.90;3.00;;;20.80;39.40;;;;;;5054698;28;20357;-62
2022/04/18 13:11:45;;;;;;;7.77;3.43;;;20.80;39.20;;;;;;5059323;28;20130;-64